sensor_id;sensor_type;location;lat;lon;timestamp;P1;durP1;ratioP1;P2;durP2;ratioP2
64375;SDS011;50700;55.416;12.952;2023-02-15T00:01:38;47.55;;;15.75;;
64375;SDS011;50700;55.416;12.952;2023-02-15T00:04:04;45.33;;;15.25;;
64375;SDS011;50700;55.416;12.952;2023-02-15T00:06:30;46.33;;;16.10;;
64375;SDS011;50700;55.416;12.952;2023-02-15T00:08:57;46.17;;;15.63;;
64375;SDS011;50700;55.416;12.952;2023-02-15T00:11:23;44.83;;;16.08;;
64375;SDS011;50700;55.416;12.952;2023-02-15T00:14:10;43.10;;;15.30;;
64375;SDS011;50700;55.416;12.952;2023-02-15T00:16:38;44.55;;;15.75;;
64375;SDS011;50700;55.416;12.952;2023-02-15T00:19:04;44.90;;;14.57;;
64375;SDS011;50700;55.416;12.952;2023-02-15T00:21:31;46.97;;;16.52;;
64375;SDS011;50700;55.416;12.952;2023-02-15T00:23:58;39.80;;;14.98;;
64375;SDS011;50700;55.416;12.952;2023-02-15T00:26:25;57.63;;;16.95;;
64375;SDS011;50700;55.416;12.952;2023-02-15T00:28:51;43.38;;;14.60;;
64375;SDS011;50700;55.416;12.952;2023-02-15T00:31:18;46.95;;;15.32;;
64375;SDS011;50700;55.416;12.952;2023-02-15T00:33:45;49.50;;;16.48;;
64375;SDS011;50700;55.416;12.952;2023-02-15T00:36:11;50.08;;;16.15;;
64375;SDS011;50700;55.416;12.952;2023-02-15T00:38:37;50.67;;;15.82;;
64375;SDS011;50700;55.416;12.952;2023-02-15T00:41:04;48.08;;;15.75;;
64375;SDS011;50700;55.416;12.952;2023-02-15T00:43:32;45.42;;;15.90;;
64375;SDS011;50700;55.416;12.952;2023-02-15T00:45:58;55.58;;;17.05;;
64375;SDS011;50700;55.416;12.952;2023-02-15T00:48:24;46.45;;;16.20;;
64375;SDS011;50700;55.416;12.952;2023-02-15T00:50:52;42.20;;;16.35;;
64375;SDS011;50700;55.416;12.952;2023-02-15T00:53:19;45.22;;;14.48;;
64375;SDS011;50700;55.416;12.952;2023-02-15T00:55:45;44.22;;;15.13;;
64375;SDS011;50700;55.416;12.952;2023-02-15T00:58:12;53.97;;;15.50;;
64375;SDS011;50700;55.416;12.952;2023-02-15T01:00:38;45.78;;;15.50;;
64375;SDS011;50700;55.416;12.952;2023-02-15T01:03:05;51.35;;;16.58;;
64375;SDS011;50700;55.416;12.952;2023-02-15T01:05:31;49.88;;;16.08;;
64375;SDS011;50700;55.416;12.952;2023-02-15T01:07:58;54.45;;;17.00;;
64375;SDS011;50700;55.416;12.952;2023-02-15T01:10:25;52.53;;;18.55;;
64375;SDS011;50700;55.416;12.952;2023-02-15T01:12:52;52.03;;;15.93;;
64375;SDS011;50700;55.416;12.952;2023-02-15T01:15:18;52.33;;;17.98;;
64375;SDS011;50700;55.416;12.952;2023-02-15T01:17:45;53.30;;;17.50;;
64375;SDS011;50700;55.416;12.952;2023-02-15T01:20:23;52.13;;;16.80;;
64375;SDS011;50700;55.416;12.952;2023-02-15T01:22:50;48.20;;;16.50;;
64375;SDS011;50700;55.416;12.952;2023-02-15T01:25:16;44.10;;;15.38;;
64375;SDS011;50700;55.416;12.952;2023-02-15T01:27:43;45.53;;;17.67;;
64375;SDS011;50700;55.416;12.952;2023-02-15T01:30:10;53.05;;;17.25;;
64375;SDS011;50700;55.416;12.952;2023-02-15T01:32:36;58.75;;;17.80;;
64375;SDS011;50700;55.416;12.952;2023-02-15T01:35:03;48.17;;;15.95;;
64375;SDS011;50700;55.416;12.952;2023-02-15T01:37:32;53.65;;;16.20;;
64375;SDS011;50700;55.416;12.952;2023-02-15T01:39:59;47.13;;;16.38;;
64375;SDS011;50700;55.416;12.952;2023-02-15T01:42:25;39.97;;;15.15;;
64375;SDS011;50700;55.416;12.952;2023-02-15T01:44:54;52.92;;;17.52;;
64375;SDS011;50700;55.416;12.952;2023-02-15T01:47:26;49.80;;;16.85;;
64375;SDS011;50700;55.416;12.952;2023-02-15T01:52:22;47.55;;;14.48;;
64375;SDS011;50700;55.416;12.952;2023-02-15T01:54:48;43.88;;;16.05;;
64375;SDS011;50700;55.416;12.952;2023-02-15T01:57:16;54.50;;;17.98;;
64375;SDS011;50700;55.416;12.952;2023-02-15T01:59:45;49.78;;;16.00;;
64375;SDS011;50700;55.416;12.952;2023-02-15T02:02:13;47.88;;;15.68;;
64375;SDS011;50700;55.416;12.952;2023-02-15T02:04:47;46.15;;;17.15;;
64375;SDS011;50700;55.416;12.952;2023-02-15T02:07:15;54.00;;;16.77;;
64375;SDS011;50700;55.416;12.952;2023-02-15T02:09:42;46.50;;;15.73;;
64375;SDS011;50700;55.416;12.952;2023-02-15T02:12:08;45.92;;;14.70;;
64375;SDS011;50700;55.416;12.952;2023-02-15T02:14:35;43.95;;;15.98;;
64375;SDS011;50700;55.416;12.952;2023-02-15T02:27:56;42.35;;;14.27;;
64375;SDS011;50700;55.416;12.952;2023-02-15T02:31:30;41.17;;;14.82;;
64375;SDS011;50700;55.416;12.952;2023-02-15T02:33:25;41.05;;;14.68;;
64375;SDS011;50700;55.416;12.952;2023-02-15T02:38:23;41.28;;;15.23;;
64375;SDS011;50700;55.416;12.952;2023-02-15T02:40:55;47.35;;;16.38;;
64375;SDS011;50700;55.416;12.952;2023-02-15T02:43:47;43.90;;;15.43;;
64375;SDS011;50700;55.416;12.952;2023-02-15T02:46:17;40.05;;;14.18;;
64375;SDS011;50700;55.416;12.952;2023-02-15T02:48:46;43.55;;;15.38;;
64375;SDS011;50700;55.416;12.952;2023-02-15T02:51:12;43.28;;;14.52;;
64375;SDS011;50700;55.416;12.952;2023-02-15T02:53:45;45.92;;;14.35;;
64375;SDS011;50700;55.416;12.952;2023-02-15T02:56:18;40.78;;;13.50;;
64375;SDS011;50700;55.416;12.952;2023-02-15T02:59:21;39.75;;;15.20;;
64375;SDS011;50700;55.416;12.952;2023-02-15T03:01:45;42.72;;;13.98;;
64375;SDS011;50700;55.416;12.952;2023-02-15T03:04:17;41.83;;;14.23;;
64375;SDS011;50700;55.416;12.952;2023-02-15T03:06:52;45.88;;;15.30;;
64375;SDS011;50700;55.416;12.952;2023-02-15T03:09:21;37.58;;;14.00;;
64375;SDS011;50700;55.416;12.952;2023-02-15T03:11:48;40.63;;;13.52;;
64375;SDS011;50700;55.416;12.952;2023-02-15T03:14:15;44.70;;;14.45;;
64375;SDS011;50700;55.416;12.952;2023-02-15T03:16:42;36.42;;;13.98;;
64375;SDS011;50700;55.416;12.952;2023-02-15T03:19:12;42.45;;;14.80;;
64375;SDS011;50700;55.416;12.952;2023-02-15T03:24:13;44.33;;;14.73;;
64375;SDS011;50700;55.416;12.952;2023-02-15T03:26:42;45.15;;;15.27;;
64375;SDS011;50700;55.416;12.952;2023-02-15T03:29:09;38.38;;;14.48;;
64375;SDS011;50700;55.416;12.952;2023-02-15T03:31:37;42.47;;;14.70;;
64375;SDS011;50700;55.416;12.952;2023-02-15T03:34:05;40.42;;;14.35;;
64375;SDS011;50700;55.416;12.952;2023-02-15T03:42:22;45.70;;;15.75;;
64375;SDS011;50700;55.416;12.952;2023-02-15T03:44:43;48.10;;;15.48;;
64375;SDS011;50700;55.416;12.952;2023-02-15T03:47:13;44.90;;;15.40;;
64375;SDS011;50700;55.416;12.952;2023-02-15T03:49:43;37.35;;;14.85;;
64375;SDS011;50700;55.416;12.952;2023-02-15T03:52:10;38.10;;;13.82;;
64375;SDS011;50700;55.416;12.952;2023-02-15T03:54:37;38.50;;;15.02;;
64375;SDS011;50700;55.416;12.952;2023-02-15T03:57:17;43.97;;;15.50;;
64375;SDS011;50700;55.416;12.952;2023-02-15T04:00:04;39.17;;;14.82;;
64375;SDS011;50700;55.416;12.952;2023-02-15T04:05:34;48.53;;;16.10;;
64375;SDS011;50700;55.416;12.952;2023-02-15T04:08:00;45.22;;;15.32;;
64375;SDS011;50700;55.416;12.952;2023-02-15T04:10:27;45.28;;;14.93;;
64375;SDS011;50700;55.416;12.952;2023-02-15T04:13:12;47.47;;;15.50;;
64375;SDS011;50700;55.416;12.952;2023-02-15T04:15:38;46.72;;;16.70;;
64375;SDS011;50700;55.416;12.952;2023-02-15T04:18:23;42.10;;;14.77;;
64375;SDS011;50700;55.416;12.952;2023-02-15T04:21:08;46.60;;;17.88;;
64375;SDS011;50700;55.416;12.952;2023-02-15T04:23:53;48.95;;;16.73;;
64375;SDS011;50700;55.416;12.952;2023-02-15T04:26:38;46.03;;;16.17;;
64375;SDS011;50700;55.416;12.952;2023-02-15T04:29:04;48.58;;;16.23;;
64375;SDS011;50700;55.416;12.952;2023-02-15T04:31:30;43.53;;;15.93;;
64375;SDS011;50700;55.416;12.952;2023-02-15T04:33:56;44.30;;;16.95;;
64375;SDS011;50700;55.416;12.952;2023-02-15T04:36:22;47.53;;;16.77;;
64375;SDS011;50700;55.416;12.952;2023-02-15T04:38:49;51.95;;;16.80;;
64375;SDS011;50700;55.416;12.952;2023-02-15T04:41:15;43.40;;;14.75;;
64375;SDS011;50700;55.416;12.952;2023-02-15T04:43:41;43.20;;;16.42;;
64375;SDS011;50700;55.416;12.952;2023-02-15T04:46:07;47.35;;;16.73;;
64375;SDS011;50700;55.416;12.952;2023-02-15T04:48:34;42.38;;;15.65;;
64375;SDS011;50700;55.416;12.952;2023-02-15T04:51:04;39.72;;;15.15;;
64375;SDS011;50700;55.416;12.952;2023-02-15T04:53:31;41.65;;;15.95;;
64375;SDS011;50700;55.416;12.952;2023-02-15T04:55:58;44.10;;;15.95;;
64375;SDS011;50700;55.416;12.952;2023-02-15T04:58:24;43.47;;;14.57;;
64375;SDS011;50700;55.416;12.952;2023-02-15T05:00:50;51.65;;;16.00;;
64375;SDS011;50700;55.416;12.952;2023-02-15T05:03:16;48.75;;;16.60;;
64375;SDS011;50700;55.416;12.952;2023-02-15T05:05:42;41.13;;;14.68;;
64375;SDS011;50700;55.416;12.952;2023-02-15T05:08:08;46.97;;;15.80;;
64375;SDS011;50700;55.416;12.952;2023-02-15T05:10:34;39.50;;;14.95;;
64375;SDS011;50700;55.416;12.952;2023-02-15T05:13:01;45.47;;;16.05;;
64375;SDS011;50700;55.416;12.952;2023-02-15T05:15:27;46.15;;;17.20;;
64375;SDS011;50700;55.416;12.952;2023-02-15T05:17:53;41.35;;;14.68;;
64375;SDS011;50700;55.416;12.952;2023-02-15T05:20:19;48.17;;;14.95;;
64375;SDS011;50700;55.416;12.952;2023-02-15T05:22:45;46.40;;;16.52;;
64375;SDS011;50700;55.416;12.952;2023-02-15T05:25:11;40.35;;;14.88;;
64375;SDS011;50700;55.416;12.952;2023-02-15T05:27:56;45.75;;;15.52;;
64375;SDS011;50700;55.416;12.952;2023-02-15T05:30:41;49.55;;;16.00;;
64375;SDS011;50700;55.416;12.952;2023-02-15T05:33:08;42.40;;;15.52;;
64375;SDS011;50700;55.416;12.952;2023-02-15T05:35:35;46.25;;;16.30;;
64375;SDS011;50700;55.416;12.952;2023-02-15T05:38:01;45.22;;;15.50;;
64375;SDS011;50700;55.416;12.952;2023-02-15T05:40:27;48.70;;;16.17;;
64375;SDS011;50700;55.416;12.952;2023-02-15T05:42:53;38.60;;;14.75;;
64375;SDS011;50700;55.416;12.952;2023-02-15T05:45:20;45.22;;;16.38;;
64375;SDS011;50700;55.416;12.952;2023-02-15T05:47:46;45.40;;;15.50;;
64375;SDS011;50700;55.416;12.952;2023-02-15T05:50:12;41.53;;;14.65;;
64375;SDS011;50700;55.416;12.952;2023-02-15T05:52:38;40.10;;;15.88;;
64375;SDS011;50700;55.416;12.952;2023-02-15T05:55:05;43.97;;;14.95;;
64375;SDS011;50700;55.416;12.952;2023-02-15T05:57:32;43.42;;;17.08;;
64375;SDS011;50700;55.416;12.952;2023-02-15T05:59:58;43.33;;;15.05;;
64375;SDS011;50700;55.416;12.952;2023-02-15T06:02:24;47.95;;;16.13;;
64375;SDS011;50700;55.416;12.952;2023-02-15T06:04:51;44.20;;;17.73;;
64375;SDS011;50700;55.416;12.952;2023-02-15T06:07:17;42.65;;;15.13;;
64375;SDS011;50700;55.416;12.952;2023-02-15T06:09:43;46.55;;;16.85;;
64375;SDS011;50700;55.416;12.952;2023-02-15T06:12:09;46.60;;;15.60;;
64375;SDS011;50700;55.416;12.952;2023-02-15T06:14:35;45.35;;;16.42;;
64375;SDS011;50700;55.416;12.952;2023-02-15T06:17:01;50.28;;;17.20;;
64375;SDS011;50700;55.416;12.952;2023-02-15T06:19:28;41.03;;;15.60;;
64375;SDS011;50700;55.416;12.952;2023-02-15T06:21:54;42.70;;;15.90;;
64375;SDS011;50700;55.416;12.952;2023-02-15T06:24:20;41.72;;;16.13;;
64375;SDS011;50700;55.416;12.952;2023-02-15T06:26:46;45.67;;;16.50;;
64375;SDS011;50700;55.416;12.952;2023-02-15T06:29:13;42.83;;;14.73;;
64375;SDS011;50700;55.416;12.952;2023-02-15T06:31:39;41.75;;;16.65;;
64375;SDS011;50700;55.416;12.952;2023-02-15T06:34:05;43.35;;;15.50;;
64375;SDS011;50700;55.416;12.952;2023-02-15T06:36:32;47.72;;;16.75;;
64375;SDS011;50700;55.416;12.952;2023-02-15T06:38:58;48.22;;;16.00;;
64375;SDS011;50700;55.416;12.952;2023-02-15T06:41:24;49.00;;;16.67;;
64375;SDS011;50700;55.416;12.952;2023-02-15T06:43:50;41.30;;;14.35;;
64375;SDS011;50700;55.416;12.952;2023-02-15T06:46:16;39.78;;;15.48;;
64375;SDS011;50700;55.416;12.952;2023-02-15T06:48:43;42.38;;;14.55;;
64375;SDS011;50700;55.416;12.952;2023-02-15T06:51:09;41.65;;;15.60;;
64375;SDS011;50700;55.416;12.952;2023-02-15T06:53:35;42.95;;;15.45;;
64375;SDS011;50700;55.416;12.952;2023-02-15T06:56:02;42.00;;;16.02;;
64375;SDS011;50700;55.416;12.952;2023-02-15T06:58:38;44.72;;;15.90;;
64375;SDS011;50700;55.416;12.952;2023-02-15T07:01:04;38.95;;;14.48;;
64375;SDS011;50700;55.416;12.952;2023-02-15T07:03:30;43.05;;;14.85;;
64375;SDS011;50700;55.416;12.952;2023-02-15T07:05:58;49.28;;;16.75;;
64375;SDS011;50700;55.416;12.952;2023-02-15T07:08:24;46.85;;;15.50;;
64375;SDS011;50700;55.416;12.952;2023-02-15T07:10:51;48.30;;;17.45;;
64375;SDS011;50700;55.416;12.952;2023-02-15T07:13:18;41.55;;;14.95;;
64375;SDS011;50700;55.416;12.952;2023-02-15T07:15:44;43.20;;;16.55;;
64375;SDS011;50700;55.416;12.952;2023-02-15T07:18:11;42.85;;;15.05;;
64375;SDS011;50700;55.416;12.952;2023-02-15T07:20:37;46.53;;;15.57;;
64375;SDS011;50700;55.416;12.952;2023-02-15T07:23:06;40.47;;;15.18;;
64375;SDS011;50700;55.416;12.952;2023-02-15T07:25:33;43.88;;;15.90;;
64375;SDS011;50700;55.416;12.952;2023-02-15T07:28:00;44.53;;;15.18;;
64375;SDS011;50700;55.416;12.952;2023-02-15T07:30:27;42.47;;;15.57;;
64375;SDS011;50700;55.416;12.952;2023-02-15T07:32:56;33.15;;;14.23;;
64375;SDS011;50700;55.416;12.952;2023-02-15T07:35:52;43.72;;;16.40;;
64375;SDS011;50700;55.416;12.952;2023-02-15T07:38:19;43.55;;;15.48;;
64375;SDS011;50700;55.416;12.952;2023-02-15T07:40:45;43.53;;;16.25;;
64375;SDS011;50700;55.416;12.952;2023-02-15T07:43:12;43.25;;;15.65;;
64375;SDS011;50700;55.416;12.952;2023-02-15T07:45:38;41.92;;;14.68;;
64375;SDS011;50700;55.416;12.952;2023-02-15T07:48:05;46.60;;;15.68;;
64375;SDS011;50700;55.416;12.952;2023-02-15T07:50:31;41.50;;;16.08;;
64375;SDS011;50700;55.416;12.952;2023-02-15T07:52:58;46.40;;;16.85;;
64375;SDS011;50700;55.416;12.952;2023-02-15T07:55:24;48.90;;;17.08;;
64375;SDS011;50700;55.416;12.952;2023-02-15T07:57:50;44.00;;;15.82;;
64375;SDS011;50700;55.416;12.952;2023-02-15T08:00:19;40.88;;;15.35;;
64375;SDS011;50700;55.416;12.952;2023-02-15T08:02:49;42.75;;;15.95;;
64375;SDS011;50700;55.416;12.952;2023-02-15T08:05:38;51.53;;;16.38;;
64375;SDS011;50700;55.416;12.952;2023-02-15T08:08:05;46.40;;;16.27;;
64375;SDS011;50700;55.416;12.952;2023-02-15T08:10:32;46.88;;;15.88;;
64375;SDS011;50700;55.416;12.952;2023-02-15T08:13:17;45.70;;;17.65;;
64375;SDS011;50700;55.416;12.952;2023-02-15T08:15:52;42.28;;;15.13;;
64375;SDS011;50700;55.416;12.952;2023-02-15T08:18:18;42.10;;;16.05;;
64375;SDS011;50700;55.416;12.952;2023-02-15T08:20:48;43.58;;;15.73;;
64375;SDS011;50700;55.416;12.952;2023-02-15T08:23:15;44.20;;;16.55;;
64375;SDS011;50700;55.416;12.952;2023-02-15T08:25:41;43.55;;;16.27;;
64375;SDS011;50700;55.416;12.952;2023-02-15T08:28:07;44.67;;;16.27;;
64375;SDS011;50700;55.416;12.952;2023-02-15T08:30:33;45.83;;;16.85;;
64375;SDS011;50700;55.416;12.952;2023-02-15T08:32:59;43.75;;;16.30;;
64375;SDS011;50700;55.416;12.952;2023-02-15T08:35:26;44.15;;;16.25;;
64375;SDS011;50700;55.416;12.952;2023-02-15T08:37:52;49.40;;;16.80;;
64375;SDS011;50700;55.416;12.952;2023-02-15T08:40:18;44.67;;;16.05;;
64375;SDS011;50700;55.416;12.952;2023-02-15T08:42:44;45.00;;;17.50;;
64375;SDS011;50700;55.416;12.952;2023-02-15T08:45:11;46.92;;;16.55;;
64375;SDS011;50700;55.416;12.952;2023-02-15T08:47:37;46.78;;;17.20;;
64375;SDS011;50700;55.416;12.952;2023-02-15T08:50:03;46.60;;;16.75;;
64375;SDS011;50700;55.416;12.952;2023-02-15T08:52:30;37.55;;;15.23;;
64375;SDS011;50700;55.416;12.952;2023-02-15T08:54:56;41.10;;;15.30;;
64375;SDS011;50700;55.416;12.952;2023-02-15T08:57:22;40.33;;;16.23;;
64375;SDS011;50700;55.416;12.952;2023-02-15T08:59:49;47.45;;;17.08;;
64375;SDS011;50700;55.416;12.952;2023-02-15T09:02:16;45.33;;;16.63;;
64375;SDS011;50700;55.416;12.952;2023-02-15T09:04:42;45.42;;;16.33;;
64375;SDS011;50700;55.416;12.952;2023-02-15T09:07:08;48.47;;;16.08;;
64375;SDS011;50700;55.416;12.952;2023-02-15T09:09:35;44.83;;;15.15;;
64375;SDS011;50700;55.416;12.952;2023-02-15T09:12:01;46.17;;;16.17;;
64375;SDS011;50700;55.416;12.952;2023-02-15T09:14:28;44.03;;;17.23;;
64375;SDS011;50700;55.416;12.952;2023-02-15T09:16:54;49.35;;;17.98;;
64375;SDS011;50700;55.416;12.952;2023-02-15T09:19:21;45.67;;;17.65;;
64375;SDS011;50700;55.416;12.952;2023-02-15T09:21:48;49.05;;;17.45;;
64375;SDS011;50700;55.416;12.952;2023-02-15T09:24:14;48.08;;;17.73;;
64375;SDS011;50700;55.416;12.952;2023-02-15T09:26:42;44.80;;;17.38;;
64375;SDS011;50700;55.416;12.952;2023-02-15T09:29:09;46.53;;;17.33;;
64375;SDS011;50700;55.416;12.952;2023-02-15T09:31:39;53.83;;;17.25;;
64375;SDS011;50700;55.416;12.952;2023-02-15T09:34:09;48.50;;;17.70;;
64375;SDS011;50700;55.416;12.952;2023-02-15T09:36:36;46.55;;;16.20;;
64375;SDS011;50700;55.416;12.952;2023-02-15T09:39:06;44.72;;;16.52;;
64375;SDS011;50700;55.416;12.952;2023-02-15T09:51:58;49.92;;;17.55;;
64375;SDS011;50700;55.416;12.952;2023-02-15T09:56:58;46.25;;;17.27;;
64375;SDS011;50700;55.416;12.952;2023-02-15T09:59:33;42.67;;;16.20;;
64375;SDS011;50700;55.416;12.952;2023-02-15T10:11:59;47.08;;;16.85;;
64375;SDS011;50700;55.416;12.952;2023-02-15T10:14:50;46.90;;;16.55;;
64375;SDS011;50700;55.416;12.952;2023-02-15T10:22:54;43.75;;;16.17;;
64375;SDS011;50700;55.416;12.952;2023-02-15T10:25:42;46.50;;;16.98;;
64375;SDS011;50700;55.416;12.952;2023-02-15T10:28:13;46.03;;;16.85;;
64375;SDS011;50700;55.416;12.952;2023-02-15T10:30:50;45.33;;;14.98;;
64375;SDS011;50700;55.416;12.952;2023-02-15T10:38:58;43.15;;;16.30;;
64375;SDS011;50700;55.416;12.952;2023-02-15T10:44:12;42.13;;;17.10;;
64375;SDS011;50700;55.416;12.952;2023-02-15T10:46:55;47.88;;;16.80;;
64375;SDS011;50700;55.416;12.952;2023-02-15T10:51:58;42.53;;;15.30;;
64375;SDS011;50700;55.416;12.952;2023-02-15T10:59:24;43.97;;;17.25;;
64375;SDS011;50700;55.416;12.952;2023-02-15T11:04:36;48.97;;;17.03;;
64375;SDS011;50700;55.416;12.952;2023-02-15T11:07:47;52.65;;;18.27;;
64375;SDS011;50700;55.416;12.952;2023-02-15T11:09:56;45.65;;;16.73;;
64375;SDS011;50700;55.416;12.952;2023-02-15T11:12:26;46.83;;;17.90;;
64375;SDS011;50700;55.416;12.952;2023-02-15T11:17:22;49.50;;;17.85;;
64375;SDS011;50700;55.416;12.952;2023-02-15T11:22:15;51.22;;;17.60;;
64375;SDS011;50700;55.416;12.952;2023-02-15T11:24:43;50.88;;;17.02;;
64375;SDS011;50700;55.416;12.952;2023-02-15T11:27:20;49.20;;;18.30;;
64375;SDS011;50700;55.416;12.952;2023-02-15T11:34:53;54.00;;;17.58;;
64375;SDS011;50700;55.416;12.952;2023-02-15T11:37:23;47.70;;;18.13;;
64375;SDS011;50700;55.416;12.952;2023-02-15T11:39:50;53.08;;;19.17;;
64375;SDS011;50700;55.416;12.952;2023-02-15T11:42:20;56.65;;;18.77;;
64375;SDS011;50700;55.416;12.952;2023-02-15T11:45:14;56.92;;;18.85;;
64375;SDS011;50700;55.416;12.952;2023-02-15T11:47:43;48.40;;;17.65;;
64375;SDS011;50700;55.416;12.952;2023-02-15T11:50:16;52.97;;;19.63;;
64375;SDS011;50700;55.416;12.952;2023-02-15T11:52:44;49.95;;;17.20;;
64375;SDS011;50700;55.416;12.952;2023-02-15T11:55:14;54.83;;;19.30;;
64375;SDS011;50700;55.416;12.952;2023-02-15T11:57:42;52.42;;;18.35;;
64375;SDS011;50700;55.416;12.952;2023-02-15T12:00:27;54.90;;;18.20;;
64375;SDS011;50700;55.416;12.952;2023-02-15T12:02:56;48.00;;;17.10;;
64375;SDS011;50700;55.416;12.952;2023-02-15T12:05:24;50.78;;;17.55;;
64375;SDS011;50700;55.416;12.952;2023-02-15T12:08:00;53.75;;;19.48;;
64375;SDS011;50700;55.416;12.952;2023-02-15T12:10:36;55.70;;;19.27;;
64375;SDS011;50700;55.416;12.952;2023-02-15T12:13:37;52.00;;;18.20;;
64375;SDS011;50700;55.416;12.952;2023-02-15T12:15:57;52.33;;;19.00;;
64375;SDS011;50700;55.416;12.952;2023-02-15T12:18:35;45.92;;;17.95;;
64375;SDS011;50700;55.416;12.952;2023-02-15T12:21:06;50.63;;;19.63;;
64375;SDS011;50700;55.416;12.952;2023-02-15T12:23:33;53.72;;;19.52;;
64375;SDS011;50700;55.416;12.952;2023-02-15T12:26:00;48.15;;;18.20;;
64375;SDS011;50700;55.416;12.952;2023-02-15T12:28:35;56.42;;;19.27;;
64375;SDS011;50700;55.416;12.952;2023-02-15T12:31:02;50.78;;;18.75;;
64375;SDS011;50700;55.416;12.952;2023-02-15T12:33:50;49.63;;;17.40;;
64375;SDS011;50700;55.416;12.952;2023-02-15T12:36:19;49.25;;;18.90;;
64375;SDS011;50700;55.416;12.952;2023-02-15T12:39:09;53.33;;;17.75;;
64375;SDS011;50700;55.416;12.952;2023-02-15T12:42:25;61.13;;;18.58;;
64375;SDS011;50700;55.416;12.952;2023-02-15T12:44:35;50.92;;;20.02;;
64375;SDS011;50700;55.416;12.952;2023-02-15T12:49:32;50.17;;;18.45;;
64375;SDS011;50700;55.416;12.952;2023-02-15T12:52:44;49.17;;;18.73;;
64375;SDS011;50700;55.416;12.952;2023-02-15T12:54:46;52.22;;;18.50;;
64375;SDS011;50700;55.416;12.952;2023-02-15T12:57:14;45.92;;;17.63;;
64375;SDS011;50700;55.416;12.952;2023-02-15T12:59:50;53.40;;;20.00;;
64375;SDS011;50700;55.416;12.952;2023-02-15T13:02:21;50.10;;;19.17;;
64375;SDS011;50700;55.416;12.952;2023-02-15T13:04:48;51.28;;;18.83;;
64375;SDS011;50700;55.416;12.952;2023-02-15T13:07:15;44.17;;;17.77;;
64375;SDS011;50700;55.416;12.952;2023-02-15T13:09:41;49.35;;;19.63;;
64375;SDS011;50700;55.416;12.952;2023-02-15T13:14:44;49.45;;;18.20;;
64375;SDS011;50700;55.416;12.952;2023-02-15T13:17:11;48.53;;;18.35;;
64375;SDS011;50700;55.416;12.952;2023-02-15T13:19:41;58.60;;;19.85;;
64375;SDS011;50700;55.416;12.952;2023-02-15T13:22:16;46.28;;;18.70;;
64375;SDS011;50700;55.416;12.952;2023-02-15T13:25:27;49.30;;;18.33;;
64375;SDS011;50700;55.416;12.952;2023-02-15T13:27:38;49.83;;;19.45;;
64375;SDS011;50700;55.416;12.952;2023-02-15T13:30:20;51.33;;;20.13;;
64375;SDS011;50700;55.416;12.952;2023-02-15T13:32:49;54.08;;;18.88;;
64375;SDS011;50700;55.416;12.952;2023-02-15T13:35:16;52.08;;;18.42;;
64375;SDS011;50700;55.416;12.952;2023-02-15T13:40:24;50.00;;;19.55;;
64375;SDS011;50700;55.416;12.952;2023-02-15T13:43:25;59.30;;;19.00;;
64375;SDS011;50700;55.416;12.952;2023-02-15T13:45:58;51.50;;;19.65;;
64375;SDS011;50700;55.416;12.952;2023-02-15T13:51:22;55.08;;;19.25;;
64375;SDS011;50700;55.416;12.952;2023-02-15T13:59:06;54.15;;;19.95;;
64375;SDS011;50700;55.416;12.952;2023-02-15T14:01:44;51.25;;;19.85;;
64375;SDS011;50700;55.416;12.952;2023-02-15T14:07:30;52.63;;;19.27;;
64375;SDS011;50700;55.416;12.952;2023-02-15T14:20:52;46.42;;;17.17;;
64375;SDS011;50700;55.416;12.952;2023-02-15T14:23:43;49.42;;;16.90;;
64375;SDS011;50700;55.416;12.952;2023-02-15T14:31:04;48.63;;;16.98;;
64375;SDS011;50700;55.416;12.952;2023-02-15T14:33:55;43.65;;;17.52;;
64375;SDS011;50700;55.416;12.952;2023-02-15T14:36:19;47.10;;;15.55;;
64375;SDS011;50700;55.416;12.952;2023-02-15T14:41:28;36.78;;;14.50;;
64375;SDS011;50700;55.416;12.952;2023-02-15T14:44:07;42.28;;;15.40;;
64375;SDS011;50700;55.416;12.952;2023-02-15T14:46:50;42.28;;;14.85;;
64375;SDS011;50700;55.416;12.952;2023-02-15T14:49:22;44.75;;;16.15;;
64375;SDS011;50700;55.416;12.952;2023-02-15T14:57:33;38.27;;;16.10;;
64375;SDS011;50700;55.416;12.952;2023-02-15T15:07:22;32.35;;;13.68;;
64375;SDS011;50700;55.416;12.952;2023-02-15T15:12:48;35.90;;;13.65;;
64375;SDS011;50700;55.416;12.952;2023-02-15T15:17:55;38.25;;;15.43;;
64375;SDS011;50700;55.416;12.952;2023-02-15T15:25:55;44.95;;;16.15;;
64375;SDS011;50700;55.416;12.952;2023-02-15T15:34:10;56.30;;;15.43;;
64375;SDS011;50700;55.416;12.952;2023-02-15T15:39:06;47.95;;;15.93;;
64375;SDS011;50700;55.416;12.952;2023-02-15T15:46:43;40.85;;;14.80;;
64375;SDS011;50700;55.416;12.952;2023-02-15T15:49:15;39.70;;;13.57;;
64375;SDS011;50700;55.416;12.952;2023-02-15T15:51:42;39.90;;;14.77;;
64375;SDS011;50700;55.416;12.952;2023-02-15T15:54:16;37.30;;;14.55;;
64375;SDS011;50700;55.416;12.952;2023-02-15T15:56:44;49.72;;;15.02;;
64375;SDS011;50700;55.416;12.952;2023-02-15T15:59:15;40.72;;;15.50;;
64375;SDS011;50700;55.416;12.952;2023-02-15T16:01:44;48.10;;;15.32;;
64375;SDS011;50700;55.416;12.952;2023-02-15T16:04:11;39.08;;;14.70;;
64375;SDS011;50700;55.416;12.952;2023-02-15T16:06:38;36.63;;;14.35;;
64375;SDS011;50700;55.416;12.952;2023-02-15T16:11:42;39.75;;;13.10;;
64375;SDS011;50700;55.416;12.952;2023-02-15T16:14:12;51.85;;;14.63;;
64375;SDS011;50700;55.416;12.952;2023-02-15T16:16:40;37.38;;;14.07;;
64375;SDS011;50700;55.416;12.952;2023-02-15T16:19:14;41.90;;;14.50;;
64375;SDS011;50700;55.416;12.952;2023-02-15T16:21:42;46.45;;;14.90;;
64375;SDS011;50700;55.416;12.952;2023-02-15T16:26:44;43.20;;;15.00;;
64375;SDS011;50700;55.416;12.952;2023-02-15T16:29:14;40.70;;;13.75;;
64375;SDS011;50700;55.416;12.952;2023-02-15T16:31:41;44.35;;;15.13;;
64375;SDS011;50700;55.416;12.952;2023-02-15T16:34:25;40.60;;;14.68;;
64375;SDS011;50700;55.416;12.952;2023-02-15T16:37:12;41.75;;;14.48;;
64375;SDS011;50700;55.416;12.952;2023-02-15T16:39:40;44.17;;;14.65;;
64375;SDS011;50700;55.416;12.952;2023-02-15T16:42:07;45.55;;;14.57;;
64375;SDS011;50700;55.416;12.952;2023-02-15T16:44:34;49.35;;;17.27;;
64375;SDS011;50700;55.416;12.952;2023-02-15T16:47:00;51.40;;;15.63;;
64375;SDS011;50700;55.416;12.952;2023-02-15T16:49:27;48.95;;;16.40;;
64375;SDS011;50700;55.416;12.952;2023-02-15T16:52:19;47.60;;;16.95;;
64375;SDS011;50700;55.416;12.952;2023-02-15T16:54:41;50.60;;;15.52;;
64375;SDS011;50700;55.416;12.952;2023-02-15T16:57:18;46.72;;;14.65;;
64375;SDS011;50700;55.416;12.952;2023-02-15T16:59:46;46.38;;;15.45;;
64375;SDS011;50700;55.416;12.952;2023-02-15T17:02:15;38.58;;;15.20;;
64375;SDS011;50700;55.416;12.952;2023-02-15T17:04:42;44.80;;;16.10;;
64375;SDS011;50700;55.416;12.952;2023-02-15T17:07:15;44.30;;;16.48;;
64375;SDS011;50700;55.416;12.952;2023-02-15T17:09:49;45.75;;;16.60;;